Airfield :
LOGIN :

Register | Disclaimer

   EN    FR    IT 

 










Legend :    VFR   Marginal VFR   IFR   Intensive IFR   Very Intensive IFR
Visi :
Ceiling :
>= 8 km
>= 3000ft
5 to 8 km
1000 to 3000 ft
1500m to 5 km
500 to 1000 ft
800 to 1500m
200 to 500 ft
< 800m
< 200 ft
Symbols :   Thunderstorms  Fog  Heavy snow  Heavy precipitations  Wind > 20 kt
SIGMETs :     Misc.  Thunderstorms  Icing  Turbulence  Mountain Waves  Volcanic Ashes







- Airport Elevation : 1411 ft
- IATA code : GVA


LSGG - Genève Cointrin

CURRENT METAR :
  • 270250Z AUTO 28003KT 250V330 9999 FEW027 BKN067 04/04 Q1013 NOSIG

EXPIRED METARs :
  • 270220Z AUTO VRB01KT 9999 OVC069 04/04 Q1013 NOSIG
  • 270150Z AUTO 24002KT 9999 FEW068 04/04 Q1013 NOSIG
  • 270120Z AUTO 27002KT 230V300 9999 BKN071 05/03 Q1013 NOSIG
  • 270050Z AUTO 23004KT 200V270 9999 FEW056 BKN072 05/03 Q1013 NOSIG
  • 270020Z AUTO 20006KT 9999 FEW030 BKN073 05/03 Q1013 NOSIG

TAF TAF LSGG
Valid from the 27 at 03:00 until the 28 at 09:00 UTC


270225Z 2703/2809 VRB03KT 9999 BKN070 TX08/2715Z TN03/2706Z TN03/2806Z
ATIS : +41 22 417 40 81
No reported NOTAMs for that airfield.



MET'MAP, your aeronautical weather chart ! - Copyright ORBIFLY December 2007 - Disclaimer

ORBIFLY MET'MAP TEAM :

Programming & Development : Alexandra Zaïnal
Concept & Development : Baudouin d'Aumeries
Co-Development & Prog : Marc-Olivier Méhu
Technical & hardware support : Manuel Goepfert

Contact : metmap@orbifly.com




SOURCES & CREDITS :

   NOAA